EDDR

Saarbrücken Airport

Saarbrücken, Germany
METAR EDDR 230850Z 27008KT 5000 BR NSC 06/05 Q1030 NOSIG
Observed Flight Rules
Oct-23 @ 08:50 UTC (48 minutes ago) Marginal Visual Flight Rules
Wind Visibility Clouds Conditions
270° at 8 knots 5,005 meters
  • Clear skies
  • Mist
Temperatures Readings
Current 6°C / 43°F
Dewpoint 5°C / 41°F
Humidity 93%
Altimeter 30.41" Hg
Pressure 1030 hPa
Elevation 320
METAR EDDR 230850Z 27008KT 5000 BR NSC 06/05 Q1030 NOSIG
Observed Flight Rules
Oct-23 @ 08:50 UTC
(48 minutes ago)
MVFR
Wind Visibility
270° at 8 knots 5,005 meters
Clouds
  • Clear skies
Conditions
  • Mist
Temperature Dewpoint
6°C / 43°F 5°C / 41°F
Humidity Altimeter Pressure
93% 30.41" Hg 1030 hPa